Time;durP1;ratioP1;P1;durP2;ratioP2;P2;SDS_P1;SDS_P2;PMS_P1;PMS_P2;Temp;Humidity;BMP_temperature;BMP_pressure;BME280_temperature;BME280_humidity;BME280_pressure;Samples;Min_cycle;Max_cycle;Signal;HPM_P1;HPM_P2
2021/10/22 00:01:46;;;;;;;5.30;0.93;;;;;;;5.64;90.33;100389.03;5042771;28;20451;-89
2021/10/22 00:04:13;;;;;;;9.15;0.90;;;;;;;5.59;90.92;100399.41;5040146;28;20049;-87
2021/10/22 00:06:42;;;;;;;7.88;2.42;;;;;;;5.55;90.56;100395.03;5044814;28;20061;-89
2021/10/22 00:09:09;;;;;;;7.57;1.35;;;;;;;5.59;90.47;100401.13;5051958;28;20060;-90
2021/10/22 00:11:43;;;;;;;6.82;1.48;;;;;;;5.66;89.73;100399.44;5052538;28;20017;-87
2021/10/22 00:14:20;;;;;;;3.83;0.75;;;;;;;5.59;90.17;100396.81;5046985;28;20064;-90
2021/10/22 00:16:48;;;;;;;8.55;1.27;;;;;;;5.53;90.69;100391.56;5029927;28;20527;-89
2021/10/22 00:19:15;;;;;;;3.22;1.35;;;;;;;5.54;91.30;100397.63;5037839;28;20042;-90
2021/10/22 00:30:36;;;;;;;9.65;2.50;;;;;;;5.79;89.66;100409.94;5028307;28;20852;-87
2021/10/22 00:33:03;;;;;;;6.63;1.52;;;;;;;5.83;89.58;100413.44;5027317;28;20014;-87
2021/10/22 00:35:37;;;;;;;3.97;1.08;;;;;;;5.84;89.33;100409.97;5039106;28;20057;-88
2021/10/22 00:38:15;;;;;;;4.00;1.45;;;;;;;5.84;89.23;100416.88;5005752;28;20052;-88
2021/10/22 00:40:42;;;;;;;7.32;1.20;;;;;;;5.81;89.76;100415.13;5013403;28;20060;-88
2021/10/22 00:46:31;;;;;;;9.77;1.17;;;;;;;5.72;90.42;100418.56;5018242;28;20042;-90
2021/10/22 00:58:05;;;;;;;6.95;1.02;;;;;;;5.73;89.41;100422.88;5020152;28;20054;-87
2021/10/22 01:00:32;;;;;;;6.30;1.02;;;;;;;5.75;89.76;100415.06;4992375;28;20057;-86
2021/10/22 01:06:49;;;;;;;7.18;1.90;;;;;;;5.67;89.91;100429.75;4960659;28;20054;-88
2021/10/22 01:09:17;;;;;;;6.78;1.23;;;;;;;5.60;90.44;100424.50;4947707;28;20066;-87
2021/10/22 01:12:22;;;;;;;3.55;1.13;;;;;;;5.57;91.26;100423.63;5000788;28;20085;-86
2021/10/22 01:17:46;;;;;;;3.03;0.90;;;;;;;5.45;92.26;100417.47;5002314;28;20049;-87
2021/10/22 01:23:15;;;;;;;10.13;1.58;;;;;;;5.38;92.66;100425.19;5027306;28;20691;-88
2021/10/22 01:25:44;;;;;;;4.65;1.10;;;;;;;5.37;93.28;100429.53;5004799;28;20104;-88
2021/10/22 01:28:51;;;;;;;5.10;1.00;;;;;;;5.37;93.51;100426.94;5000888;28;20050;-86
2021/10/22 01:31:31;;;;;;;13.48;1.33;;;;;;;5.35;93.40;100439.00;4980442;28;20045;-85
2021/10/22 01:36:42;;;;;;;;;;;;;;;5.36;93.56;100435.56;4979525;28;20049;-86
2021/10/22 01:43:17;;;;;;;6.15;1.48;;;;;;;5.34;93.72;100441.59;4945308;28;20461;-86
2021/10/22 01:45:43;;;;;;;5.57;0.50;;;;;;;5.34;94.06;100442.47;4987253;28;20073;-87
2021/10/22 01:48:10;;;;;;;6.72;2.35;;;;;;;5.30;94.06;100440.69;4976464;28;20045;-86
2021/10/22 01:50:40;;;;;;;10.35;1.23;;;;;;;5.28;94.64;100434.66;4970990;28;20061;-86
2021/10/22 01:53:07;;;;;;;5.72;1.65;;;;;;;5.32;94.14;100428.63;4958690;28;20107;-86
2021/10/22 01:55:34;;;;;;;9.30;2.00;;;;;;;5.28;93.97;100432.03;4976345;28;20046;-85
2021/10/22 01:58:02;;;;;;;5.32;0.90;;;;;;;5.35;94.11;100430.38;4973615;28;20139;-86
2021/10/22 02:00:32;;;;;;;3.53;1.30;;;;;;;5.34;93.64;100433.81;4992510;28;20139;-85
2021/10/22 02:02:59;;;;;;;6.53;1.13;;;;;;;5.33;93.62;100424.28;4988628;28;20049;-85
2021/10/22 02:05:25;;;;;;;5.97;1.30;;;;;;;5.36;93.88;100425.19;4977323;28;20034;-85
2021/10/22 02:07:52;;;;;;;5.28;0.90;;;;;;;5.39;93.63;100427.81;4958201;28;20054;-86
2021/10/22 02:10:19;;;;;;;5.13;1.27;;;;;;;5.44;93.17;100430.44;4961402;28;20559;-86
2021/10/22 02:12:46;;;;;;;11.50;1.83;;;;;;;5.49;93.38;100422.69;4986490;28;20421;-86
2021/10/22 02:15:13;;;;;;;8.90;1.73;;;;;;;5.50;92.88;100430.50;4991456;28;20515;-84
2021/10/22 02:17:39;;;;;;;7.35;1.38;;;;;;;5.51;92.86;100421.84;4960272;28;21271;-86
2021/10/22 02:20:07;;;;;;;5.63;1.23;;;;;;;5.53;92.66;100422.72;4957527;28;20053;-86
2021/10/22 02:22:35;;;;;;;5.75;1.30;;;;;;;5.52;92.58;100412.34;4976488;28;21442;-86
2021/10/22 02:25:01;;;;;;;6.28;1.17;;;;;;;5.51;92.54;100413.19;4959147;28;20058;-86
2021/10/22 02:27:28;;;;;;;14.25;1.25;;;;;;;5.49;92.54;100405.41;4978085;28;20131;-86
2021/10/22 02:29:55;;;;;;;7.65;1.20;;;;;;;5.46;93.02;100415.75;4969739;28;20108;-86
2021/10/22 02:32:22;;;;;;;4.35;1.13;;;;;;;5.43;92.96;100415.72;4978634;28;20129;-85
2021/10/22 02:34:49;;;;;;;7.65;1.13;;;;;;;5.35;93.08;100402.69;4963799;28;20022;-87
2021/10/22 02:37:15;;;;;;;9.38;1.35;;;;;;;5.30;93.42;100392.25;4993915;28;20077;-85
2021/10/22 02:39:42;;;;;;;6.70;1.33;;;;;;;5.34;93.92;100400.06;4993130;28;20046;-85
2021/10/22 02:42:09;;;;;;;9.75;2.38;;;;;;;5.34;93.21;100393.16;4991560;28;20049;-88
2021/10/22 02:44:36;;;;;;;8.70;1.70;;;;;;;5.35;93.38;100394.03;4979812;28;20168;-86
2021/10/22 02:47:04;;;;;;;2.42;0.82;;;;;;;5.31;93.49;100398.31;4989843;28;20038;-86
2021/10/22 02:49:31;;;;;;;9.02;2.53;;;;;;;5.27;93.19;100396.56;4989428;28;20108;-86
2021/10/22 02:51:57;;;;;;;8.40;1.70;;;;;;;5.21;93.77;100399.94;4974466;28;20056;-86
2021/10/22 02:54:24;;;;;;;7.93;1.30;;;;;;;5.24;93.74;100392.22;4975374;28;20057;-85
2021/10/22 02:56:51;;;;;;;3.70;1.30;;;;;;;5.30;93.68;100391.38;4973326;28;20050;-86
2021/10/22 02:59:18;;;;;;;4.65;1.25;;;;;;;5.33;93.34;100387.94;4975540;28;20436;-88
2021/10/22 03:01:45;;;;;;;9.45;1.55;;;;;;;5.38;93.57;100392.31;4979264;28;20087;-85
2021/10/22 03:04:12;;;;;;;5.43;1.10;;;;;;;5.38;93.24;100387.13;4974624;28;20038;-85
2021/10/22 03:06:39;;;;;;;7.50;1.15;;;;;;;5.35;92.98;100381.91;4994484;28;22203;-87
2021/10/22 03:09:10;;;;;;;14.82;3.90;;;;;;;5.29;93.00;100376.66;4996721;28;20058;-88
2021/10/22 03:11:50;;;;;;;;;;;;;;;5.29;93.26;100385.34;4967335;28;20073;-86
2021/10/22 03:14:16;;;;;;;4.57;1.67;;;;;;;5.25;93.47;100378.38;4961541;28;19961;-86
2021/10/22 03:16:43;;;;;;;7.65;1.30;;;;;;;5.31;93.11;100377.56;5002016;28;20050;-87
2021/10/22 03:19:11;;;;;;;6.25;1.20;;;;;;;5.30;92.56;100379.25;4993616;28;20181;-86
2021/10/22 03:21:40;;;;;;;8.10;1.48;;;;;;;5.28;93.21;100386.19;4974767;28;20041;-87
2021/10/22 03:27:15;;;;;;;6.93;1.20;;;;;;;5.30;92.58;100379.25;5010439;28;20136;-86
2021/10/22 03:29:43;;;;;;;4.25;1.05;;;;;;;5.35;92.47;100376.72;4982603;28;20132;-86
2021/10/22 03:32:10;;;;;;;8.88;1.63;;;;;;;5.39;92.25;100369.84;4980209;28;20054;-84
2021/10/22 03:34:37;;;;;;;8.98;1.80;;;;;;;5.42;91.70;100368.13;4984120;28;20069;-86
2021/10/22 03:37:04;;;;;;;6.28;1.20;;;;;;;5.42;91.32;100369.84;4974388;28;20168;-86
2021/10/22 03:39:31;;;;;;;6.32;1.48;;;;;;;5.37;91.65;100364.63;4977763;28;20482;-86
2021/10/22 03:41:58;;;;;;;9.15;1.98;;;;;;;5.35;91.92;100366.34;4980244;28;20064;-86
2021/10/22 03:44:25;;;;;;;6.20;1.77;;;;;;;5.34;91.96;100367.19;4989964;28;20341;-87
2021/10/22 03:46:51;;;;;;;3.95;1.58;;;;;;;5.36;92.05;100367.19;4975830;28;20054;-86
2021/10/22 03:49:18;;;;;;;11.75;1.85;;;;;;;5.47;91.76;100378.53;4992357;28;20081;-86
2021/10/22 03:51:45;;;;;;;3.80;1.50;;;;;;;5.47;90.84;100363.84;4997581;28;20503;-86
2021/10/22 03:54:12;;;;;;;4.63;1.42;;;;;;;5.41;91.26;100363.78;4976869;28;20056;-86
2021/10/22 03:56:47;;;;;;;7.35;2.17;;;;;;;5.41;90.68;100356.00;4995762;28;20160;-86
2021/10/22 03:59:16;;;;;;;3.30;1.42;;;;;;;5.49;90.96;100343.09;4979549;28;20046;-86
2021/10/22 04:01:43;;;;;;;7.45;1.88;;;;;;;5.50;91.14;100343.94;4982071;28;20054;-86
2021/10/22 04:04:09;;;;;;;16.83;6.85;;;;;;;5.47;91.51;100347.38;4986300;28;20049;-85
2021/10/22 04:06:36;;;;;;;5.10;1.63;;;;;;;5.45;91.10;100355.16;4965188;28;20053;-86
2021/10/22 04:09:03;;;;;;;6.57;1.23;;;;;;;5.49;90.98;100361.25;4984035;28;20046;-85
2021/10/22 04:11:30;;;;;;;2.33;1.13;;;;;;;5.53;91.12;100349.16;4999034;28;20077;-86
2021/10/22 04:13:57;;;;;;;7.75;2.05;;;;;;;5.56;90.66;100351.78;4968982;28;20077;-86
2021/10/22 04:16:24;;;;;;;3.78;1.52;;;;;;;5.61;90.34;100340.56;4975939;28;20149;-85
2021/10/22 04:18:51;;;;;;;11.38;2.30;;;;;;;5.63;90.59;100338.84;4968243;28;20057;-86
2021/10/22 04:21:18;;;;;;;6.50;1.75;;;;;;;5.65;90.07;100338.00;4976229;28;20129;-86
2021/10/22 04:23:46;;;;;;;3.90;1.40;;;;;;;5.62;89.69;100344.03;5005856;28;20038;-86
2021/10/22 04:26:17;;;;;;;10.50;2.25;;;;;;;5.65;89.59;100345.78;4981556;28;20061;-85
2021/10/22 04:28:44;;;;;;;4.57;1.90;;;;;;;5.65;90.15;100338.00;4988532;28;20061;-86
2021/10/22 04:31:10;;;;;;;6.15;2.55;;;;;;;5.69;89.45;100353.59;4976325;28;20048;-86
2021/10/22 04:33:39;;;;;;;6.32;1.88;;;;;;;5.71;89.95;100343.19;4997092;28;20048;-86
2021/10/22 04:36:08;;;;;;;5.07;1.33;;;;;;;5.74;89.29;100351.88;4992287;28;20056;-86
2021/10/22 04:41:19;;;;;;;9.25;2.47;;;;;;;5.78;88.74;100345.84;4991705;28;20042;-86
2021/10/22 04:43:52;;;;;;;11.13;2.08;;;;;;;5.87;88.07;100350.22;4977765;28;20073;-85
2021/10/22 04:46:20;;;;;;;9.10;1.52;;;;;;;5.93;87.55;100351.97;4961427;28;20054;-85
2021/10/22 04:48:48;;;;;;;9.35;3.13;;;;;;;5.91;87.57;100359.78;4991545;28;20049;-85
2021/10/22 04:51:15;;;;;;;8.82;2.30;;;;;;;5.88;88.04;100364.97;4993861;28;20168;-86
2021/10/22 04:53:42;;;;;;;7.93;1.85;;;;;;;5.84;88.24;100362.34;4964565;28;20045;-86
2021/10/22 04:56:08;;;;;;;14.38;2.50;;;;;;;5.83;88.29;100365.78;4980710;28;20042;-85
2021/10/22 04:58:37;;;;;;;9.80;2.22;;;;;;;5.82;88.63;100361.47;4960225;28;20130;-86
2021/10/22 05:01:05;;;;;;;10.18;3.47;;;;;;;5.86;88.45;100364.06;4981107;28;20145;-86
2021/10/22 05:03:34;;;;;;;9.38;2.45;;;;;;;5.94;87.64;100370.19;4979310;28;21703;-86
2021/10/22 05:06:00;;;;;;;10.85;2.72;;;;;;;5.96;87.72;100370.22;4989177;28;20082;-86
2021/10/22 05:08:27;;;;;;;6.63;2.13;;;;;;;5.91;87.01;100371.91;4981328;28;20058;-86
2021/10/22 05:10:54;;;;;;;11.35;2.05;;;;;;;5.87;87.79;100359.78;4975619;28;20115;-86
2021/10/22 05:13:21;;;;;;;6.78;2.63;;;;;;;5.85;87.91;100362.34;4995114;28;20050;-86
2021/10/22 05:15:48;;;;;;;10.13;2.40;;;;;;;5.82;87.99;100353.69;4972280;28;20049;-86
2021/10/22 05:18:14;;;;;;;13.95;2.65;;;;;;;5.78;88.53;100355.38;4978671;28;20129;-87
2021/10/22 05:20:41;;;;;;;10.57;3.83;;;;;;;5.77;88.14;100353.63;4978970;28;20116;-86
2021/10/22 05:23:08;;;;;;;12.93;3.25;;;;;;;5.74;88.28;100346.69;4974995;28;21274;-85
2021/10/22 05:25:35;;;;;;;6.57;2.10;;;;;;;5.76;88.14;100345.00;4979951;28;20117;-86
2021/10/22 05:28:01;;;;;;;8.48;2.65;;;;;;;5.84;86.99;100342.44;4957473;28;20139;-85
2021/10/22 05:30:28;;;;;;;12.82;3.65;;;;;;;5.85;87.01;100323.38;4977967;28;20131;-85
2021/10/22 05:32:55;;;;;;;9.43;2.03;;;;;;;5.86;87.02;100332.91;4994551;28;20046;-86
2021/10/22 05:35:22;;;;;;;7.60;2.60;;;;;;;5.86;86.57;100327.72;4979438;28;20880;-86
2021/10/22 05:37:49;;;;;;;13.18;2.95;;;;;;;5.82;86.75;100320.75;4977901;28;20069;-86
2021/10/22 05:40:16;;;;;;;9.40;2.55;;;;;;;5.83;86.96;100326.81;4990206;28;20049;-87
2021/10/22 05:42:42;;;;;;;4.18;1.88;;;;;;;5.95;85.71;100319.09;4976999;28;20058;-86
2021/10/22 05:45:10;;;;;;;11.25;2.35;;;;;;;6.03;85.45;100312.22;4989620;28;20041;-86
2021/10/22 05:47:39;;;;;;;12.40;2.08;;;;;;;6.01;84.52;100300.97;4975437;28;20656;-86
2021/10/22 05:50:10;;;;;;;5.43;1.80;;;;;;;6.02;84.20;100300.09;4988560;28;20037;-85
2021/10/22 05:52:37;;;;;;;9.05;2.50;;;;;;;5.98;84.68;100287.94;4980300;28;20106;-87
2021/10/22 05:55:04;;;;;;;8.48;2.35;;;;;;;5.98;83.90;100274.97;4976684;28;20046;-86
2021/10/22 05:57:31;;;;;;;7.57;1.73;;;;;;;6.00;83.39;100268.06;5002919;28;20064;-87
2021/10/22 05:59:58;;;;;;;5.90;1.55;;;;;;;6.01;83.43;100274.09;4990931;28;20049;-87
2021/10/22 06:02:24;;;;;;;6.35;1.80;;;;;;;6.03;82.93;100256.81;4976110;28;20095;-88
2021/10/22 06:04:51;;;;;;;8.45;2.85;;;;;;;6.06;83.29;100262.00;4988434;28;20126;-87
2021/10/22 06:07:18;;;;;;;7.90;2.05;;;;;;;6.00;83.19;100264.56;4965144;28;20050;-88
2021/10/22 06:09:45;;;;;;;6.35;1.63;;;;;;;6.09;82.36;100257.69;4982987;28;20050;-86
2021/10/22 06:12:13;;;;;;;5.80;1.45;;;;;;;6.09;81.78;100260.28;4990406;28;20090;-87
2021/10/22 06:14:40;;;;;;;5.55;1.30;;;;;;;6.07;82.47;100251.59;5018827;28;20040;-87
2021/10/22 06:17:07;;;;;;;8.95;2.05;;;;;;;6.12;81.64;100244.69;5001930;28;20050;-85
2021/10/22 06:19:39;;;;;;;6.88;1.73;;;;;;;6.29;80.88;100228.28;4978747;28;20109;-86
2021/10/22 06:22:21;;;;;;;7.90;1.83;;;;;;;6.38;79.52;100241.28;4997281;28;20042;-85
2021/10/22 06:24:48;;;;;;;8.68;2.00;;;;;;;6.55;79.52;100253.44;4994930;28;20495;-87
2021/10/22 06:27:15;;;;;;;9.65;1.50;;;;;;;6.65;79.42;100256.91;4980925;28;20049;-87
2021/10/22 06:29:42;;;;;;;4.53;3.25;;;;;;;6.76;78.97;100261.25;4966453;28;20057;-87
2021/10/22 06:32:10;;;;;;;15.73;1.75;;;;;;;6.84;78.56;100258.66;5003396;28;20084;-85
2021/10/22 06:34:45;;;;;;;7.00;1.60;;;;;;;6.86;77.71;100261.28;5008390;28;20052;-87
2021/10/22 06:37:17;;;;;;;7.07;1.80;;;;;;;6.88;78.30;100256.94;5009218;28;20125;-85
2021/10/22 06:39:48;;;;;;;6.45;1.48;;;;;;;6.97;77.68;100238.69;5024329;28;20068;-86
2021/10/22 06:42:16;;;;;;;7.43;1.77;;;;;;;7.01;77.28;100265.59;5018221;28;20076;-86
2021/10/22 06:47:25;;;;;;;5.43;1.83;;;;;;;7.08;77.00;100262.13;5001889;28;20112;-85
2021/10/22 06:49:52;;;;;;;9.23;1.70;;;;;;;7.15;76.97;100282.06;5001556;28;20046;-85
2021/10/22 06:52:20;;;;;;;5.65;1.85;;;;;;;7.18;76.79;100263.84;4997079;28;20152;-86
2021/10/22 06:54:58;;;;;;;3.95;1.38;;;;;;;7.24;76.85;100258.63;5005804;28;20104;-85
2021/10/22 06:57:25;;;;;;;6.85;2.05;;;;;;;7.29;76.93;100269.03;4992936;28;20052;-87
2021/10/22 06:59:52;;;;;;;10.07;2.60;;;;;;;7.36;76.44;100267.28;5009652;28;20066;-86
2021/10/22 07:02:21;;;;;;;6.82;1.63;;;;;;;7.34;76.14;100264.69;4994993;28;20076;-85
2021/10/22 07:04:50;;;;;;;8.35;2.17;;;;;;;7.33;75.61;100259.50;4989201;28;20042;-87
2021/10/22 07:07:16;;;;;;;8.30;1.85;;;;;;;7.31;76.60;100277.69;4997382;28;20335;-86
2021/10/22 07:09:51;;;;;;;5.50;2.42;;;;;;;7.36;76.12;100262.09;5008494;28;20045;-86
2021/10/22 07:12:18;;;;;;;3.53;1.35;;;;;;;7.41;75.59;100262.94;4992183;28;20045;-87
2021/10/22 07:14:52;;;;;;;6.25;2.05;;;;;;;7.46;75.53;100263.81;4999899;28;20045;-86
2021/10/22 07:17:19;;;;;;;6.38;1.65;;;;;;;7.50;75.17;100260.31;4994878;28;20105;-88
2021/10/22 07:19:46;;;;;;;9.80;2.85;;;;;;;7.49;75.48;100266.38;4991882;28;20029;-87
2021/10/22 07:22:14;;;;;;;7.10;1.50;;;;;;;7.51;75.40;100259.44;4996175;28;20061;-86
2021/10/22 07:24:41;;;;;;;7.45;2.33;;;;;;;7.55;75.43;100263.78;4992460;28;20034;-87
2021/10/22 07:27:08;;;;;;;11.13;1.42;;;;;;;7.58;75.51;100266.34;4987196;28;20045;-87
2021/10/22 07:29:35;;;;;;;6.15;1.15;;;;;;;7.59;75.29;100264.63;4992313;28;20149;-87
2021/10/22 07:32:03;;;;;;;11.00;1.73;;;;;;;7.60;76.18;100248.13;5006876;28;20084;-86
2021/10/22 07:34:29;;;;;;;10.93;2.03;;;;;;;7.58;77.83;100275.91;4994343;28;20049;-87
2021/10/22 07:36:56;;;;;;;6.63;1.70;;;;;;;7.56;77.86;100273.34;4992050;28;20044;-86
2021/10/22 07:39:23;;;;;;;6.63;1.77;;;;;;;7.59;77.55;100270.69;4981054;28;20052;-87
2021/10/22 07:41:55;;;;;;;9.07;1.70;;;;;;;7.60;78.23;100258.53;4995810;28;20042;-87
2021/10/22 07:45:14;;;;;;;7.45;1.65;;;;;;;7.64;77.58;100265.50;5015086;28;20038;-88
2021/10/22 07:47:40;;;;;;;8.18;1.83;;;;;;;7.77;77.53;100248.09;5009876;28;20103;-86
2021/10/22 07:50:09;;;;;;;16.25;3.13;;;;;;;7.81;76.90;100273.25;4964930;28;20049;-86
2021/10/22 07:52:36;;;;;;;8.55;1.80;;;;;;;7.86;77.18;100274.09;4995971;28;20061;-87
2021/10/22 07:55:05;;;;;;;16.40;1.90;;;;;;;7.86;76.69;100263.69;4988580;28;20046;-89
2021/10/22 07:57:33;;;;;;;4.78;0.85;;;;;;;7.92;76.71;100273.19;4997164;28;20049;-87
2021/10/22 08:00:01;;;;;;;8.48;1.60;;;;;;;8.05;75.57;100253.16;4998102;28;20046;-86
2021/10/22 08:02:28;;;;;;;10.45;2.30;;;;;;;8.14;75.64;100249.66;5020184;28;20073;-86
2021/10/22 08:04:56;;;;;;;5.72;2.13;;;;;;;8.17;74.86;100254.84;4996986;28;20050;-89
2021/10/22 08:07:29;;;;;;;6.68;2.58;;;;;;;8.23;75.14;100258.28;5014762;28;20074;-86
2021/10/22 08:09:58;;;;;;;5.25;1.48;;;;;;;8.27;75.54;100248.69;4998209;28;20041;-88
2021/10/22 08:12:26;;;;;;;4.65;1.67;;;;;;;8.23;74.45;100250.44;4990964;28;20050;-86
2021/10/22 08:14:53;;;;;;;9.07;1.40;;;;;;;8.23;75.71;100257.41;4967428;28;20046;-86
2021/10/22 08:17:22;;;;;;;13.10;1.63;;;;;;;8.25;74.92;100253.91;4971088;28;20056;-86
2021/10/22 08:19:54;;;;;;;6.88;2.67;;;;;;;8.29;75.31;100252.13;4985981;28;20045;-87
2021/10/22 08:22:31;;;;;;;7.22;2.13;;;;;;;8.38;74.59;100249.50;4979848;28;20126;-85
2021/10/22 08:25:10;;;;;;;12.73;3.63;;;;;;;8.37;74.24;100247.75;4989427;28;20049;-88
2021/10/22 08:27:47;;;;;;;6.40;1.52;;;;;;;8.42;74.39;100248.59;4977994;28;20049;-86
2021/10/22 08:30:22;;;;;;;8.25;3.35;;;;;;;8.58;73.90;100238.94;4992886;28;20065;-86
2021/10/22 08:32:55;;;;;;;3.20;0.98;;;;;;;8.68;72.77;100238.88;4990192;28;20054;-87
2021/10/22 08:35:28;;;;;;;2.10;1.10;;;;;;;8.71;73.03;100252.78;5004918;28;20069;-87
2021/10/22 08:37:56;;;;;;;7.55;1.80;;;;;;;8.75;72.59;100246.63;4990277;28;20068;-86
2021/10/22 08:40:24;;;;;;;6.20;1.50;;;;;;;8.72;71.83;100251.91;4993011;28;20065;-88
2021/10/22 08:42:52;;;;;;;3.53;1.50;;;;;;;8.84;72.27;100235.28;4992339;28;20089;-88
2021/10/22 08:45:19;;;;;;;6.32;1.67;;;;;;;8.94;71.67;100241.25;4975319;28;20046;-85
2021/10/22 08:47:47;;;;;;;4.63;1.08;;;;;;;8.96;71.13;100220.34;4995270;28;20050;-85
2021/10/22 08:50:20;;;;;;;5.82;1.55;;;;;;;8.92;71.44;100236.06;5008829;28;20111;-86
2021/10/22 08:52:49;;;;;;;5.13;1.55;;;;;;;8.91;70.66;100225.63;4981507;28;20130;-86
2021/10/22 08:55:19;;;;;;;7.53;1.02;;;;;;;9.02;70.87;100241.19;4995669;28;20049;-86
2021/10/22 08:57:48;;;;;;;5.57;1.85;;;;;;;9.10;70.63;100245.47;4986741;28;20708;-85
2021/10/22 09:00:20;;;;;;;5.72;1.50;;;;;;;9.19;70.33;100238.41;4997017;28;21243;-86
2021/10/22 09:02:48;;;;;;;7.78;1.55;;;;;;;9.24;69.18;100218.34;4986883;28;20075;-86
2021/10/22 09:05:23;;;;;;;9.30;2.25;;;;;;;9.23;68.54;100206.16;5000846;28;20045;-86
2021/10/22 09:07:57;;;;;;;7.10;1.60;;;;;;;9.23;69.10;100229.66;4965208;28;20046;-88
2021/10/22 09:10:33;;;;;;;6.22;1.40;;;;;;;9.36;69.11;100246.97;4985250;28;20034;-86
2021/10/22 09:13:03;;;;;;;10.18;1.90;;;;;;;9.58;68.22;100242.38;4964502;28;20053;-86
2021/10/22 09:15:38;;;;;;;4.20;1.73;;;;;;;9.74;67.15;100234.34;4981262;28;20077;-88
2021/10/22 09:18:25;;;;;;;6.40;1.10;;;;;;;9.79;66.43;100235.16;4980662;28;20948;-88
2021/10/22 09:20:55;;;;;;;6.68;1.40;;;;;;;9.94;65.49;100245.41;4985535;28;20042;-86
2021/10/22 09:23:35;;;;;;;7.35;1.65;;;;;;;10.09;65.18;100246.97;4996757;28;20053;-87
2021/10/22 09:26:18;;;;;;;3.28;1.27;;;;;;;10.27;63.97;100232.75;4987322;28;20534;-88
2021/10/22 09:28:46;;;;;;;8.52;1.15;;;;;;;10.29;63.87;100243.19;5000082;28;20037;-87
2021/10/22 09:31:16;;;;;;;3.58;0.90;;;;;;;10.24;64.25;100204.00;4982383;28;20044;-87
2021/10/22 09:34:00;;;;;;;6.13;1.23;;;;;;;10.22;64.81;100245.03;4983043;28;20049;-87
2021/10/22 09:36:36;;;;;;;5.97;1.33;;;;;;;10.11;64.56;100228.63;4982152;28;20431;-88
2021/10/22 09:39:18;;;;;;;14.98;2.45;;;;;;;10.13;65.21;100236.44;4983783;28;20088;-88
2021/10/22 09:42:00;;;;;;;6.75;1.30;;;;;;;10.29;63.85;100251.03;4965605;28;20818;-89
2021/10/22 09:44:41;;;;;;;5.47;1.60;;;;;;;10.27;64.13;100268.50;4988346;28;20391;-86
2021/10/22 09:47:08;;;;;;;4.63;1.50;;;;;;;10.12;64.04;100243.44;4995810;28;20038;-86
2021/10/22 09:49:39;;;;;;;5.65;1.70;;;;;;;10.10;64.97;100268.72;5025189;28;20026;-85
2021/10/22 09:52:29;;;;;;;5.45;1.48;;;;;;;10.09;64.97;100260.03;4997381;28;20547;-85
2021/10/22 09:55:17;;;;;;;8.27;2.03;;;;;;;10.08;65.38;100254.84;4984364;28;21327;-88
2021/10/22 09:58:03;;;;;;;2.65;1.15;;;;;;;10.07;65.40;100260.94;4982263;28;21028;-86
2021/10/22 10:00:33;;;;;;;4.40;1.65;;;;;;;10.07;64.19;100229.56;5001311;28;20109;-86
2021/10/22 10:03:04;;;;;;;9.20;1.52;;;;;;;10.14;63.88;100240.78;4982507;28;20062;-87
2021/10/22 10:05:31;;;;;;;9.02;1.52;;;;;;;10.08;64.07;100260.06;4984864;28;20052;-86
2021/10/22 10:08:01;;;;;;;2.22;0.80;;;;;;;9.97;64.21;100241.88;4982855;28;20056;-86
2021/10/22 10:10:29;;;;;;;6.25;1.27;;;;;;;10.02;64.52;100258.38;4984958;28;20063;-87
2021/10/22 10:12:55;;;;;;;7.30;1.30;;;;;;;10.06;65.08;100267.06;5001147;28;20061;-87
2021/10/22 10:15:22;;;;;;;5.28;1.35;;;;;;;10.12;64.78;100255.63;4979184;28;20045;-86
2021/10/22 10:17:52;;;;;;;2.53;1.00;;;;;;;10.09;65.18;100260.03;4966530;28;20621;-87
2021/10/22 10:20:27;;;;;;;5.35;1.38;;;;;;;10.05;65.04;100260.97;4993653;28;20065;-87
2021/10/22 10:22:56;;;;;;;6.15;1.20;;;;;;;9.96;65.51;100265.44;4994613;28;20053;-88
2021/10/22 10:25:25;;;;;;;6.05;1.60;;;;;;;9.93;66.28;100258.50;4959373;28;20041;-88
2021/10/22 10:27:56;;;;;;;8.38;1.45;;;;;;;9.85;66.07;100258.59;4984102;28;20552;-89
2021/10/22 10:30:41;;;;;;;7.05;1.67;;;;;;;9.74;66.93;100245.66;4982604;28;21031;-88
2021/10/22 10:33:32;;;;;;;10.23;1.15;;;;;;;9.75;67.22;100267.41;4987798;28;20053;-87
2021/10/22 10:35:59;;;;;;;7.57;1.17;;;;;;;9.80;66.96;100260.38;4979649;28;20124;-88
2021/10/22 10:38:47;;;;;;;3.47;0.88;;;;;;;9.90;66.34;100225.41;4966327;28;20046;-87
2021/10/22 10:41:23;;;;;;;2.83;1.27;;;;;;;10.14;66.18;100233.81;4967854;28;20140;-87
2021/10/22 10:43:50;;;;;;;2.85;1.23;;;;;;;10.19;66.32;100265.13;4976630;28;20057;-88
2021/10/22 10:46:36;;;;;;;5.82;1.38;;;;;;;10.07;66.24;100248.72;4980563;28;20054;-87
2021/10/22 10:49:03;;;;;;;3.65;1.40;;;;;;;10.05;66.91;100265.31;4978976;28;20061;-87
2021/10/22 10:51:39;;;;;;;9.48;2.65;;;;;;;9.94;69.16;100265.47;4978414;28;20423;-87
2021/10/22 10:54:06;;;;;;;7.20;1.98;;;;;;;9.85;69.53;100257.75;4958292;28;20050;-88
2021/10/22 10:56:38;;;;;;;7.15;1.63;;;;;;;9.77;69.51;100273.50;4946431;28;20050;-87
2021/10/22 10:59:06;;;;;;;6.90;1.35;;;;;;;9.76;69.54;100233.44;4960333;28;20693;-88
2021/10/22 11:01:36;;;;;;;4.82;1.05;;;;;;;9.77;68.41;100248.22;4977403;28;20059;-90
2021/10/22 11:04:18;;;;;;;4.80;1.42;;;;;;;9.79;68.21;100256.06;4957438;28;20453;-89
2021/10/22 11:06:47;;;;;;;7.55;1.50;;;;;;;9.82;67.94;100218.56;4977208;28;20058;-86
2021/10/22 11:09:42;;;;;;;6.07;0.93;;;;;;;9.84;67.79;100245.53;4976749;28;20152;-87
2021/10/22 11:12:10;;;;;;;4.47;1.10;;;;;;;9.88;68.13;100255.06;4990387;28;20046;-88
2021/10/22 11:14:48;;;;;;;7.50;1.58;;;;;;;9.82;69.30;100248.19;4980518;28;20070;-87
2021/10/22 11:17:28;;;;;;;3.65;1.00;;;;;;;9.83;70.45;100254.25;4989201;28;20080;-86
2021/10/22 11:19:57;;;;;;;5.00;1.60;;;;;;;9.82;71.36;100266.47;4979494;28;20050;-86
2021/10/22 11:22:26;;;;;;;6.07;1.10;;;;;;;9.87;71.97;100263.81;4996741;28;20054;-85
2021/10/22 11:24:53;;;;;;;3.88;1.30;;;;;;;9.78;72.68;100251.72;4987559;28;20042;-86
2021/10/22 11:27:25;;;;;;;7.30;1.58;;;;;;;9.64;73.00;100264.94;4979192;28;20710;-87
2021/10/22 11:29:56;;;;;;;5.63;1.38;;;;;;;9.55;75.43;100260.69;4981724;28;20042;-88
2021/10/22 11:32:36;;;;;;;6.90;1.27;;;;;;;9.46;77.10;100281.69;4966140;28;20725;-87
2021/10/22 11:35:07;;;;;;;8.68;1.95;;;;;;;9.32;77.74;100279.22;5008788;28;20038;-88
2021/10/22 11:37:38;;;;;;;8.02;2.05;;;;;;;9.25;80.06;100275.78;4992395;28;20458;-87
2021/10/22 11:40:14;;;;;;;4.05;1.75;;;;;;;9.13;81.64;100288.13;4982884;28;20370;-88
2021/10/22 11:42:40;;;;;;;12.68;2.33;;;;;;;9.01;83.09;100274.28;4982763;28;20058;-86
2021/10/22 11:45:12;;;;;;;8.32;1.75;;;;;;;8.91;84.54;100278.69;4977675;28;20413;-88
2021/10/22 11:47:45;;;;;;;6.63;1.40;;;;;;;8.90;85.55;100281.31;4979777;28;20077;-88
2021/10/22 11:50:26;;;;;;;3.15;1.40;;;;;;;8.86;84.95;100290.06;4962564;28;20060;-87
2021/10/22 11:53:14;;;;;;;3.10;1.38;;;;;;;8.90;85.43;100291.75;4979830;28;22441;-86
2021/10/22 11:55:53;;;;;;;6.28;2.47;;;;;;;8.92;86.10;100279.59;4976773;28;20046;-85
2021/10/22 11:58:22;;;;;;;5.07;1.88;;;;;;;8.87;85.77;100287.44;4999975;28;20038;-88
2021/10/22 12:01:02;;;;;;;9.43;1.58;;;;;;;8.83;87.39;100298.78;4985791;28;20145;-85
2021/10/22 12:06:40;;;;;;;3.10;1.02;;;;;;;8.67;89.34;100302.38;5076402;27;20586;-87
2021/10/22 12:09:07;;;;;;;5.20;1.25;;;;;;;8.73;88.14;100291.91;5043855;28;20124;-87
2021/10/22 12:11:34;;;;;;;6.35;1.20;;;;;;;8.78;87.77;100284.91;5055873;28;20052;-86
2021/10/22 12:14:01;;;;;;;8.18;1.60;;;;;;;8.83;88.02;100297.94;5037773;28;20079;-87
2021/10/22 12:16:30;;;;;;;10.60;2.25;;;;;;;8.86;87.81;100297.91;5029441;28;20090;-88
2021/10/22 12:19:01;;;;;;;5.72;1.40;;;;;;;8.87;87.03;100305.72;5018012;28;20204;-88
2021/10/22 12:21:31;;;;;;;4.93;1.77;;;;;;;8.85;87.57;100290.94;5019518;28;20052;-86
2021/10/22 12:24:03;;;;;;;3.35;1.08;;;;;;;8.88;87.21;100303.97;4999755;28;20057;-86
2021/10/22 12:26:33;;;;;;;8.10;1.98;;;;;;;8.92;87.05;100301.31;4994826;28;20987;-87
2021/10/22 12:29:08;;;;;;;8.88;1.48;;;;;;;8.93;87.46;100308.28;5009601;28;20083;-87
2021/10/22 12:31:42;;;;;;;4.65;1.30;;;;;;;8.94;88.28;100310.03;5027748;28;20052;-87
2021/10/22 12:34:30;;;;;;;12.30;1.52;;;;;;;8.86;90.54;100316.16;5010294;28;20042;-88
2021/10/22 12:37:43;;;;;;;5.28;1.58;;;;;;;8.66;92.83;100327.59;5008709;28;20053;-87